createdAt,value
2019-05-30T00:06:17.444Z,19.33
2019-05-30T00:16:22.611Z,17.77
2019-05-30T00:26:27.181Z,19.17
2019-05-30T00:36:32.108Z,18.23
2019-05-30T00:46:37.035Z,18.13
2019-05-30T00:56:41.916Z,17.80
2019-05-30T01:06:46.652Z,17.93
2019-05-30T01:16:51.144Z,18.80
2019-05-30T01:26:57.065Z,18.77
2019-05-30T01:37:03.695Z,21.00
2019-05-30T01:47:10.133Z,19.47
2019-05-30T01:57:15.324Z,20.10
2019-05-30T02:07:19.756Z,18.10
2019-05-30T02:17:24.213Z,19.10
2019-05-30T02:27:28.952Z,17.57
2019-05-30T02:37:33.720Z,17.40
2019-05-30T02:47:38.213Z,17.77
2019-05-30T02:57:42.751Z,15.63
2019-05-30T03:07:47.161Z,15.77
2019-05-30T03:17:51.888Z,16.90
2019-05-30T03:27:56.951Z,18.73
2019-05-30T03:38:03.174Z,18.03
2019-05-30T03:48:12.254Z,18.20
2019-05-30T03:58:20.354Z,17.87
2019-05-30T04:08:29.223Z,16.47
2019-05-30T04:18:34.172Z,17.30
2019-05-30T04:28:38.874Z,17.60
2019-05-30T04:38:43.317Z,17.73
2019-05-30T04:48:47.797Z,17.30
2019-05-30T04:58:56.176Z,17.70
2019-05-30T05:09:01.970Z,15.60
2019-05-30T05:19:07.888Z,18.63
2019-05-30T05:29:13.998Z,17.07
2019-05-30T05:39:20.714Z,17.40
2019-05-30T05:49:25.844Z,16.10
2019-05-30T05:59:30.283Z,15.07
2019-05-30T06:09:35.852Z,16.70
2019-05-30T06:19:46.282Z,14.20
2019-05-30T06:29:46.871Z,15.00
2019-05-30T06:39:51.397Z,13.67
2019-05-30T06:49:55.961Z,14.50
2019-05-30T07:00:02.023Z,12.20
2019-05-30T07:10:07.126Z,13.50
2019-05-30T07:20:12.405Z,11.70
2019-05-30T07:30:18.399Z,11.03
2019-05-30T07:40:24.514Z,11.13
2019-05-30T07:50:30.939Z,9.87
2019-05-30T08:00:37.541Z,9.03
2019-05-30T08:10:43.278Z,8.90
2019-05-30T08:20:48.039Z,8.63
2019-05-30T08:30:56.703Z,7.00
2019-05-30T08:40:59.148Z,7.80
2019-05-30T08:51:03.876Z,7.20
2019-05-30T09:01:08.755Z,7.27
2019-05-30T09:11:13.617Z,6.60
2019-05-30T09:21:18.308Z,5.27
2019-05-30T09:31:22.748Z,6.10
2019-05-30T09:41:27.447Z,6.43
2019-05-30T09:51:32.073Z,5.67
2019-05-30T10:01:36.963Z,5.27
2019-05-30T10:11:42.787Z,5.00
2019-05-30T10:21:49.062Z,4.23
2019-05-30T10:31:53.376Z,4.10
2019-05-30T10:41:58.175Z,3.30
2019-05-30T10:52:02.892Z,2.90
2019-05-30T11:02:07.609Z,3.20
2019-05-30T11:12:11.924Z,2.90
2019-05-30T11:22:16.734Z,2.90
2019-05-30T11:32:21.069Z,3.10
2019-05-30T11:42:26.770Z,3.30
2019-05-30T11:52:31.380Z,3.00
2019-05-30T12:02:35.706Z,2.90
2019-05-30T12:12:42.647Z,2.90
2019-05-30T12:22:47.306Z,2.50
2019-05-30T12:32:52.423Z,2.70
2019-05-30T12:43:00.739Z,2.60
2019-05-30T12:53:05.917Z,2.90
2019-05-30T13:03:10.799Z,3.30
2019-05-30T13:13:15.252Z,3.20
2019-05-30T13:23:19.906Z,3.00
2019-05-30T13:33:24.282Z,2.60
2019-05-30T13:43:28.624Z,3.00
2019-05-30T13:53:33.665Z,2.90
2019-05-30T14:03:38.006Z,2.60
2019-05-30T14:13:42.411Z,2.70
2019-05-30T14:23:46.785Z,2.53
2019-05-30T14:33:51.466Z,2.60
2019-05-30T14:43:57.247Z,2.57
2019-05-30T14:54:01.813Z,3.00
2019-05-30T15:04:07.124Z,3.17
2019-05-30T15:14:12.838Z,3.13
2019-05-30T15:24:17.698Z,3.47
2019-05-30T15:34:22.301Z,2.80
2019-05-30T15:44:27.067Z,3.17
2019-05-30T15:54:32.365Z,3.50
2019-05-30T16:04:36.689Z,3.63
2019-05-30T16:14:41.174Z,3.27
2019-05-30T16:24:45.838Z,2.90
2019-05-30T16:34:52.108Z,2.97
2019-05-30T16:44:56.800Z,2.80
2019-05-30T16:55:02.151Z,3.03
2019-05-30T17:05:07.878Z,3.20
2019-05-30T17:15:13.628Z,3.07
2019-05-30T17:25:19.106Z,3.03
2019-05-30T17:35:24.492Z,3.40
2019-05-30T17:45:29.497Z,4.00
2019-05-30T17:55:34.398Z,2.83
2019-05-30T18:05:39.229Z,3.67
2019-05-30T18:15:44.038Z,3.50
2019-05-30T18:25:48.668Z,3.50
2019-05-30T18:35:54.085Z,3.40
2019-05-30T18:46:01.415Z,3.60
2019-05-30T18:56:07.754Z,3.60
2019-05-30T19:06:19.864Z,3.17
2019-05-30T19:16:26.230Z,3.37
2019-05-30T19:26:32.437Z,3.47
2019-05-30T19:36:37.968Z,3.33
2019-05-30T19:46:42.791Z,3.67
2019-05-30T19:56:50.518Z,3.73
2019-05-30T20:06:55.888Z,3.87
2019-05-30T20:17:00.580Z,3.53
2019-05-30T20:27:05.367Z,3.37
2019-05-30T20:37:09.680Z,3.33
2019-05-30T20:47:15.192Z,3.30
2019-05-30T20:57:20.675Z,3.70
2019-05-30T21:07:25.265Z,4.00
2019-05-30T21:17:33.489Z,3.83
2019-05-30T21:27:38.999Z,3.50
2019-05-30T21:37:45.724Z,3.70
2019-05-30T21:47:50.687Z,3.80
2019-05-30T21:57:55.212Z,3.60
2019-05-30T22:08:00.160Z,3.30
2019-05-30T22:18:04.557Z,3.40
2019-05-30T22:28:09.429Z,3.83
2019-05-30T22:38:13.780Z,3.50
2019-05-30T22:48:18.394Z,3.50
2019-05-30T22:58:23.383Z,3.83
2019-05-30T23:08:28.897Z,3.97
2019-05-30T23:18:35.217Z,3.50
2019-05-30T23:28:39.492Z,3.73
2019-05-30T23:38:44.281Z,4.10
2019-05-30T23:48:49.486Z,3.93
2019-05-30T23:58:54.996Z,4.00
